Manchester, Georgia
Current Conditions -  °F | °C
As of 6:55 AM on Monday 24 Nov 2014 (Local Time) from KOPN Reporting Station
Overcast Overcast  
Wind Chill: 68°   Ceiling: 1400
Heat Index: 68°   Visibility: 10mi
Dew Point: 64°   Wind: 9mph
Humidity: 88%   Direction: 230°SW
Pressure: 29.82"   Gusts: NA
Location:  32.86°N, 84.62°W
Report Text: KOPN 241155Z AUTO 23008KT 10SM OVC014 20/18 A2982 RMK AO2
Loading
Personal Weather Stations






























Interactive Weather Map New forecast layout! Learn more

10-Day Weather Forecast

Advertisements
Track Severe Weather on mobile